Grand Rapids, MI

8:45 PM EDT on March 31, 2015 (GMT -0400)
Gerald R. Ford International | | Change Station
CLOSE
Current Station
Airport
Location: Grand Rapids,
Elevation: 804 ft
Nearby Weather Stations

Elev 804 ft 42.88 °N, 85.52 °W | Updated 52 minutes ago

Mostly Cloudy
Mostly Cloudy
44 °F
Feels Like 38 °F
N
12
Wind Variable Wind from West

Today
High -- | Low -- °F
--% Chance of Precip.
Yesterday
High -- | Low -- °F
Precip. -- in
7:26 AM 8:07 PM
Waxing Gibbous, 89% visible
Pressure 29.97 in
Visibility 10.0 miles
Clouds Scattered Clouds 7000 ft
Mostly Cloudy 23000 ft
Windchill 38 °F
Dew Point 26 °F
Humidity 49%
Rainfall 0.13 in
Snow Depth Not available.
UV 0 out of 12
Pollen 1.20 out of 12
Air Quality Not available.
Flu Activity Not available.
METAR KGRR 312353Z 27010KT 10SM SCT070 BKN230 07/M03 A2995 RMK AO2 SLP147 T00671033 10111 20067 53017

More Conditions Fewer Conditions

Pressure 29.97 in
Visibility 10.0 miles
Clouds Scattered Clouds 7000 ft
Mostly Cloudy 23000 ft
Windchill 38 °F
Dew Point 26 °F
Humidity 49%
Rainfall 0.13 in
Snow Depth Not available.
UV 0 out of 12
Pollen 1.20 out of 12
Air Quality Not available.
Flu Activity Not available.
METAR KGRR 312353Z 27010KT 10SM SCT070 BKN230 07/M03 A2995 RMK AO2 SLP147 T00671033 10111 20067 53017

More Conditions Fewer Conditions

10-Day Weather Forecast

Almanac

Astronomy

Mar. 31, 2015 Rise Set
Actual Time
Civil Twilight
Nautical Twilight
Astronomical Twilight
Moon
Length of Visible Light
Length of Day
Tomorrow will be .
, % of the Moon is Illuminated

Today's Extremes

State Highs State Lows

Community

WunderPhotos

Upload Photos

1,809,887 photos uploaded!

WunderBlogs® & News

Nearby

Air Quality

  Air Quality AQ Index Pollutant
Not available.

Snow Depth

Station Depth Elevation

Earthquake Activity

City Distance Mag. Time & Date
Minimum magnitude displayed is 2.5.

Coastal Water Temperatures

Place Temperature

Stations

Nearby Weather Stations

Station Location Temp. Windchill Dew Point Humidity Wind Precip. Elev Updated Type